createdAt,value
2023-01-30T00:02:37.875Z,16.65
2023-01-30T00:05:40.712Z,17.80
2023-01-30T00:08:43.245Z,18.40
2023-01-30T00:11:46.819Z,17.07
2023-01-30T00:14:49.355Z,15.77
2023-01-30T00:17:52.029Z,17.00
2023-01-30T00:20:58.936Z,16.15
2023-01-30T00:24:02.006Z,17.37
2023-01-30T00:27:04.416Z,16.93
2023-01-30T00:30:08.034Z,16.23
2023-01-30T00:33:11.259Z,19.10
2023-01-30T00:36:14.037Z,18.58
2023-01-30T00:39:16.580Z,16.27
2023-01-30T00:42:38.156Z,16.10
2023-01-30T00:46:01.407Z,18.45
2023-01-30T00:49:04.188Z,16.60
2023-01-30T00:52:06.916Z,18.67
2023-01-30T00:55:09.781Z,19.47
2023-01-30T00:58:13.196Z,17.73
2023-01-30T01:01:15.901Z,17.62
2023-01-30T01:04:18.358Z,16.05
2023-01-30T01:07:21.386Z,18.30
2023-01-30T01:10:24.435Z,12.27
2023-01-30T01:13:27.469Z,17.27
2023-01-30T01:16:31.355Z,16.83
2023-01-30T01:19:34.675Z,15.18
2023-01-30T01:22:37.009Z,16.60
2023-01-30T01:25:39.746Z,18.60
2023-01-30T01:28:42.220Z,15.60
2023-01-30T01:31:46.621Z,15.50
2023-01-30T01:34:51.292Z,16.77
2023-01-30T01:37:54.987Z,16.12
2023-01-30T01:41:02.406Z,19.63
2023-01-30T01:44:10.701Z,16.23
2023-01-30T01:47:14.439Z,17.83
2023-01-30T01:50:27.171Z,17.42
2023-01-30T01:53:47.573Z,15.10
2023-01-30T01:56:50.646Z,14.50
2023-01-30T02:00:15.840Z,17.63
2023-01-30T02:03:23.997Z,15.85
2023-01-30T02:06:26.546Z,16.62
2023-01-30T02:09:29.257Z,18.25
2023-01-30T02:12:33.833Z,15.23
2023-01-30T02:15:37.232Z,19.37
2023-01-30T02:18:42.201Z,18.05
2023-01-30T02:22:15.772Z,17.37
2023-01-30T02:25:40.215Z,15.70
2023-01-30T02:28:52.057Z,18.93
2023-01-30T02:31:54.851Z,16.03
2023-01-30T02:35:20.487Z,15.38
2023-01-30T02:38:41.539Z,17.27
2023-01-30T02:41:48.615Z,20.05
2023-01-30T02:45:22.427Z,16.40
2023-01-30T02:48:38.015Z,17.83
2023-01-30T02:51:43.215Z,20.05
2023-01-30T02:54:47.692Z,15.63
2023-01-30T02:57:50.677Z,19.85
2023-01-30T03:01:28.303Z,18.80
2023-01-30T03:04:39.863Z,19.33
2023-01-30T03:07:48.563Z,15.40
2023-01-30T03:11:05.070Z,16.80
2023-01-30T03:14:33.704Z,17.67
2023-01-30T03:17:37.818Z,16.70
2023-01-30T03:20:41.379Z,17.67
2023-01-30T03:23:47.478Z,18.48
2023-01-30T03:26:58.862Z,17.00
2023-01-30T03:30:01.728Z,18.15
2023-01-30T03:33:04.236Z,17.60
2023-01-30T03:36:07.429Z,16.37
2023-01-30T03:39:10.498Z,19.70
2023-01-30T03:42:13.743Z,20.15
2023-01-30T03:45:16.576Z,19.08
2023-01-30T03:48:19.596Z,16.87
2023-01-30T03:51:22.771Z,16.37
2023-01-30T03:54:25.512Z,19.25
2023-01-30T03:57:29.449Z,21.05
2023-01-30T04:00:32.460Z,22.08
2023-01-30T04:03:35.679Z,17.20
2023-01-30T04:06:39.845Z,21.40
2023-01-30T04:09:43.368Z,20.83
2023-01-30T04:12:47.212Z,20.52
2023-01-30T04:15:51.139Z,20.95
2023-01-30T04:18:54.753Z,21.67
2023-01-30T04:21:59.836Z,19.67
2023-01-30T04:25:02.919Z,24.08
2023-01-30T04:28:05.996Z,20.60
2023-01-30T04:31:08.904Z,22.25
2023-01-30T04:34:11.756Z,21.73
2023-01-30T04:37:15.096Z,21.10
2023-01-30T04:40:18.960Z,22.60
2023-01-30T04:43:22.899Z,21.42
2023-01-30T04:46:28.149Z,21.37
2023-01-30T04:49:31.186Z,20.53
2023-01-30T04:52:34.056Z,20.50
2023-01-30T04:55:37.225Z,25.05
2023-01-30T04:58:40.479Z,21.60
2023-01-30T05:01:43.677Z,21.52
2023-01-30T05:04:50.040Z,20.83
2023-01-30T05:07:53.104Z,23.80
2023-01-30T05:10:58.305Z,21.17
2023-01-30T05:14:00.997Z,22.08
2023-01-30T05:17:05.440Z,20.65
2023-01-30T05:20:10.730Z,21.60
2023-01-30T05:23:13.617Z,17.80
2023-01-30T05:26:16.480Z,21.27
2023-01-30T05:29:19.316Z,21.23
2023-01-30T05:32:21.723Z,21.83
2023-01-30T05:35:24.435Z,21.00
2023-01-30T05:38:27.635Z,21.63
2023-01-30T05:41:32.595Z,21.00
2023-01-30T05:44:35.093Z,20.20
2023-01-30T05:47:37.779Z,21.50
2023-01-30T05:50:40.243Z,20.33
2023-01-30T05:53:43.102Z,23.33
2023-01-30T05:56:49.995Z,22.00
2023-01-30T05:59:52.983Z,22.83
2023-01-30T06:02:55.378Z,19.80
2023-01-30T06:05:58.486Z,29.07
2023-01-30T06:09:00.951Z,25.67
2023-01-30T06:12:04.391Z,25.67
2023-01-30T06:15:07.226Z,22.45
2023-01-30T06:18:12.871Z,21.95
2023-01-30T06:21:16.453Z,22.43
2023-01-30T06:24:19.262Z,22.33
2023-01-30T06:27:21.720Z,21.48
2023-01-30T06:30:24.546Z,22.37
2023-01-30T06:33:27.273Z,21.02
2023-01-30T06:36:30.252Z,21.20
2023-01-30T06:39:32.755Z,27.17
2023-01-30T06:42:35.636Z,22.00
2023-01-30T06:45:38.110Z,20.48
2023-01-30T06:48:40.909Z,21.00
2023-01-30T06:51:43.615Z,22.53
2023-01-30T06:54:49.172Z,19.97
2023-01-30T06:58:03.964Z,21.10
2023-01-30T07:01:06.941Z,24.37
2023-01-30T07:04:09.408Z,22.55
2023-01-30T07:07:12.542Z,20.47
2023-01-30T07:10:14.866Z,20.27
2023-01-30T07:13:17.568Z,23.33
2023-01-30T07:16:20.427Z,20.90
2023-01-30T07:19:23.325Z,22.62
2023-01-30T07:22:26.004Z,21.07
2023-01-30T07:25:29.414Z,26.87
2023-01-30T07:28:31.972Z,22.17
2023-01-30T07:31:34.708Z,22.00
2023-01-30T07:34:37.243Z,22.48
2023-01-30T07:37:39.909Z,21.03
2023-01-30T07:40:42.576Z,19.77
2023-01-30T07:43:45.325Z,23.25
2023-01-30T07:46:47.803Z,20.58
2023-01-30T07:49:50.496Z,19.08
2023-01-30T07:52:53.348Z,27.60
2023-01-30T07:55:56.234Z,26.33
2023-01-30T07:58:58.841Z,27.90
2023-01-30T08:02:01.494Z,25.42
2023-01-30T08:05:06.267Z,22.15
2023-01-30T08:08:08.784Z,26.93
2023-01-30T08:11:11.730Z,26.30
2023-01-30T08:14:14.365Z,19.37
2023-01-30T08:17:17.064Z,19.17
2023-01-30T08:20:19.950Z,20.40
2023-01-30T08:23:23.075Z,20.23
2023-01-30T08:26:25.572Z,29.90
2023-01-30T08:29:29.063Z,24.00
2023-01-30T08:32:31.925Z,21.40
2023-01-30T08:35:34.649Z,23.52
2023-01-30T08:38:37.226Z,23.27
2023-01-30T08:41:43.049Z,18.97
2023-01-30T08:44:46.168Z,19.10
2023-01-30T08:47:49.056Z,16.60
2023-01-30T08:50:55.395Z,21.75
2023-01-30T08:53:58.633Z,20.40
2023-01-30T08:57:01.043Z,17.60
2023-01-30T09:00:05.626Z,18.50
2023-01-30T09:03:08.797Z,19.92
2023-01-30T09:06:13.009Z,20.70
2023-01-30T09:09:15.663Z,16.57
2023-01-30T09:12:18.347Z,19.37
2023-01-30T09:15:22.470Z,14.63
2023-01-30T09:18:26.114Z,13.25
2023-01-30T09:21:28.845Z,17.48
2023-01-30T09:24:31.746Z,19.53
2023-01-30T09:27:34.422Z,22.27
2023-01-30T09:30:37.732Z,22.52
2023-01-30T09:33:40.508Z,19.12
2023-01-30T09:36:43.485Z,23.80
2023-01-30T09:39:45.970Z,23.57
2023-01-30T09:43:24.030Z,26.80
2023-01-30T09:47:02.952Z,19.20
2023-01-30T09:50:46.650Z,28.83
2023-01-30T09:54:02.685Z,20.88
2023-01-30T09:57:21.622Z,22.77
2023-01-30T10:00:38.554Z,19.93
2023-01-30T10:03:55.493Z,26.42
2023-01-30T10:07:43.118Z,21.00
2023-01-30T10:11:08.973Z,31.58
2023-01-30T10:14:34.213Z,27.27
2023-01-30T10:17:46.154Z,26.97
2023-01-30T10:20:48.672Z,21.73
2023-01-30T10:23:59.513Z,22.02
2023-01-30T10:27:04.836Z,24.75
2023-01-30T10:30:14.241Z,23.73
2023-01-30T10:33:28.801Z,26.20
2023-01-30T10:36:51.951Z,22.80
2023-01-30T10:40:01.235Z,23.30
2023-01-30T10:43:48.163Z,27.60
2023-01-30T10:46:50.473Z,22.08
2023-01-30T10:49:58.886Z,22.57
2023-01-30T10:53:09.430Z,18.90
2023-01-30T10:56:18.288Z,24.70
2023-01-30T10:59:30.253Z,21.80
2023-01-30T11:02:58.609Z,18.63
2023-01-30T11:06:21.029Z,16.13
2023-01-30T11:10:00.645Z,20.10
2023-01-30T11:13:33.666Z,21.05
2023-01-30T11:16:53.964Z,18.48
2023-01-30T11:20:08.517Z,22.23
2023-01-30T11:23:36.307Z,21.57
2023-01-30T11:26:47.062Z,19.35
2023-01-30T11:30:03.334Z,15.82
2023-01-30T11:33:12.925Z,17.10
2023-01-30T11:36:31.932Z,18.13
2023-01-30T11:39:35.099Z,21.57
2023-01-30T11:42:49.511Z,20.45
2023-01-30T11:45:52.707Z,20.85
2023-01-30T11:49:46.387Z,19.15
2023-01-30T11:52:38.999Z,20.13
2023-01-30T11:55:49.951Z,25.33
2023-01-30T11:59:08.121Z,22.80
2023-01-30T12:02:29.384Z,22.45
2023-01-30T12:05:35.654Z,20.75
2023-01-30T12:08:42.926Z,17.80
2023-01-30T12:11:47.918Z,19.83
2023-01-30T12:14:53.469Z,19.48
2023-01-30T12:18:13.973Z,22.35
2023-01-30T12:21:16.310Z,19.95
2023-01-30T12:24:39.420Z,19.20
2023-01-30T12:28:02.378Z,22.23
2023-01-30T12:31:16.493Z,20.48
2023-01-30T12:34:19.520Z,21.33
2023-01-30T12:37:38.190Z,16.27
2023-01-30T12:40:54.011Z,29.77
2023-01-30T12:44:30.735Z,22.53
2023-01-30T12:48:10.434Z,21.58
2023-01-30T12:51:49.363Z,20.75
2023-01-30T12:55:06.746Z,23.27
2023-01-30T12:58:49.777Z,28.20
2023-01-30T13:02:02.317Z,20.60
2023-01-30T13:05:17.554Z,18.42
2023-01-30T13:08:57.581Z,20.75
2023-01-30T13:12:03.066Z,21.60
2023-01-30T13:15:24.288Z,24.40
2023-01-30T13:18:41.659Z,21.70
2023-01-30T13:22:04.156Z,20.83
2023-01-30T13:25:31.735Z,23.70
2023-01-30T13:28:48.178Z,21.58
2023-01-30T13:31:54.851Z,21.33
2023-01-30T13:34:59.756Z,21.70
2023-01-30T13:38:04.718Z,21.42
2023-01-30T13:41:13.509Z,17.85
2023-01-30T13:44:27.754Z,15.55
2023-01-30T13:47:42.771Z,25.33
2023-01-30T13:51:08.678Z,16.83
2023-01-30T13:54:16.920Z,17.20
2023-01-30T13:57:44.004Z,18.20
2023-01-30T14:00:55.103Z,16.45
2023-01-30T14:04:36.887Z,19.77
2023-01-30T14:07:41.793Z,17.93
2023-01-30T14:10:44.830Z,26.70
2023-01-30T14:13:55.754Z,19.70
2023-01-30T14:17:10.122Z,18.33
2023-01-30T14:20:16.351Z,17.50
2023-01-30T14:23:21.678Z,20.00
2023-01-30T14:26:49.144Z,18.90
2023-01-30T14:29:53.862Z,16.20
2023-01-30T14:32:57.070Z,17.05
2023-01-30T14:36:02.850Z,19.80
2023-01-30T14:39:37.822Z,19.57
2023-01-30T14:42:40.607Z,18.75
2023-01-30T14:45:53.967Z,21.05
2023-01-30T14:49:18.015Z,20.95
2023-01-30T14:52:36.446Z,14.30
2023-01-30T14:55:39.219Z,17.23
2023-01-30T14:58:56.807Z,18.23
2023-01-30T15:02:27.318Z,19.50
2023-01-30T15:05:37.529Z,16.42
2023-01-30T15:08:45.037Z,21.83
2023-01-30T15:11:55.934Z,20.53
2023-01-30T15:15:18.366Z,20.88
2023-01-30T15:19:09.171Z,18.83
2023-01-30T15:22:11.892Z,21.80
2023-01-30T15:25:33.067Z,21.77
2023-01-30T15:28:56.960Z,19.57
2023-01-30T15:32:02.475Z,19.17
2023-01-30T15:35:11.230Z,28.30
2023-01-30T15:38:30.430Z,22.75
2023-01-30T15:41:40.456Z,19.17
2023-01-30T15:44:55.808Z,18.60
2023-01-30T15:48:20.653Z,14.50
2023-01-30T15:51:28.023Z,19.85
2023-01-30T15:54:31.123Z,21.08
2023-01-30T15:57:40.068Z,21.13
2023-01-30T16:00:52.665Z,17.93
2023-01-30T16:03:57.898Z,20.10
2023-01-30T16:07:14.578Z,17.77
2023-01-30T16:10:20.298Z,18.08
2023-01-30T16:13:24.502Z,18.87
2023-01-30T16:16:28.543Z,19.57
2023-01-30T16:19:33.235Z,16.73
2023-01-30T16:22:36.196Z,17.70
2023-01-30T16:25:38.691Z,17.98
2023-01-30T16:28:41.526Z,19.00
2023-01-30T16:31:47.806Z,20.97
2023-01-30T16:34:50.759Z,16.83
2023-01-30T16:37:55.259Z,15.20
2023-01-30T16:40:59.667Z,19.98
2023-01-30T16:44:22.034Z,14.13
2023-01-30T16:47:31.565Z,17.60
2023-01-30T16:50:34.027Z,17.87
2023-01-30T16:53:38.023Z,17.17
2023-01-30T16:56:48.064Z,16.67
2023-01-30T16:59:50.933Z,17.90
2023-01-30T17:02:58.763Z,18.23
2023-01-30T17:06:07.428Z,20.37
2023-01-30T17:09:43.679Z,20.12
2023-01-30T17:12:49.908Z,14.52
2023-01-30T17:15:52.364Z,15.73
2023-01-30T17:18:58.117Z,14.13
2023-01-30T17:22:03.771Z,18.27
2023-01-30T17:25:17.320Z,15.68
2023-01-30T17:28:23.426Z,20.33
2023-01-30T17:31:27.547Z,18.50
2023-01-30T17:34:30.037Z,17.77
2023-01-30T17:37:32.851Z,16.75
2023-01-30T17:40:39.158Z,16.83
2023-01-30T17:43:41.946Z,16.37
2023-01-30T17:46:47.508Z,15.00
2023-01-30T17:49:50.325Z,17.57
2023-01-30T17:52:52.790Z,14.90
2023-01-30T17:55:55.524Z,14.95
2023-01-30T17:58:58.214Z,16.62
2023-01-30T18:02:01.193Z,15.50
2023-01-30T18:05:04.421Z,15.97
2023-01-30T18:08:07.041Z,14.35
2023-01-30T18:11:11.973Z,15.52
2023-01-30T18:14:14.748Z,13.75
2023-01-30T18:17:18.104Z,15.53
2023-01-30T18:20:21.141Z,13.27
2023-01-30T18:23:26.751Z,16.80
2023-01-30T18:26:30.124Z,13.50
2023-01-30T18:29:33.238Z,14.18
2023-01-30T18:32:40.694Z,13.33
2023-01-30T18:35:49.790Z,13.27
2023-01-30T18:38:53.635Z,16.23
2023-01-30T18:41:56.347Z,15.05
2023-01-30T18:44:59.001Z,16.37
2023-01-30T18:48:02.016Z,15.47
2023-01-30T18:51:09.453Z,15.17
2023-01-30T18:54:12.360Z,14.27
2023-01-30T18:57:14.849Z,12.93
2023-01-30T19:00:19.643Z,13.82
2023-01-30T19:03:22.397Z,15.13
2023-01-30T19:06:25.764Z,19.00
2023-01-30T19:09:35.278Z,14.77
2023-01-30T19:13:00.330Z,11.00
2023-01-30T19:16:04.001Z,13.48
2023-01-30T19:19:09.099Z,10.67
2023-01-30T19:22:11.449Z,11.57
2023-01-30T19:25:14.182Z,11.23
2023-01-30T19:28:16.587Z,10.95
2023-01-30T19:31:21.654Z,13.38
2023-01-30T19:34:24.247Z,9.40
2023-01-30T19:37:26.921Z,7.73
2023-01-30T19:40:29.365Z,9.30
2023-01-30T19:43:32.174Z,7.22
2023-01-30T19:46:35.052Z,7.15
2023-01-30T19:49:38.109Z,6.75
2023-01-30T19:52:40.887Z,8.23
2023-01-30T19:55:49.995Z,10.73
2023-01-30T19:58:55.101Z,7.62
2023-01-30T20:01:58.032Z,7.93
2023-01-30T20:05:02.185Z,5.90
2023-01-30T20:08:06.112Z,8.47
2023-01-30T20:11:13.083Z,6.35
2023-01-30T20:14:15.782Z,6.85
2023-01-30T20:17:18.414Z,8.98
2023-01-30T20:20:21.529Z,7.93
2023-01-30T20:23:24.362Z,7.10
2023-01-30T20:26:31.098Z,7.22
2023-01-30T20:29:34.654Z,6.85
2023-01-30T20:32:37.316Z,6.47
2023-01-30T20:35:40.077Z,8.20
2023-01-30T20:38:44.370Z,6.70
2023-01-30T20:41:47.731Z,6.85
2023-01-30T20:44:50.237Z,6.45
2023-01-30T20:47:52.985Z,5.68
2023-01-30T20:50:55.342Z,6.43
2023-01-30T20:54:08.295Z,7.67
2023-01-30T20:57:10.803Z,8.13
2023-01-30T21:00:13.835Z,6.75
2023-01-30T21:03:16.279Z,5.95
2023-01-30T21:06:41.388Z,7.18
2023-01-30T21:09:47.279Z,6.60
2023-01-30T21:12:52.060Z,6.18
2023-01-30T21:16:08.437Z,7.18
2023-01-30T21:19:15.148Z,5.07
2023-01-30T21:22:17.907Z,5.65
2023-01-30T21:25:22.045Z,6.40
2023-01-30T21:28:24.564Z,6.78
2023-01-30T21:31:29.773Z,7.82
2023-01-30T21:34:35.165Z,6.28
2023-01-30T21:37:56.993Z,7.30
2023-01-30T21:41:18.375Z,7.03
2023-01-30T21:44:25.524Z,5.97
2023-01-30T21:47:28.250Z,7.45
2023-01-30T21:50:30.971Z,6.95
2023-01-30T21:53:33.547Z,6.70
2023-01-30T21:56:37.024Z,5.87
2023-01-30T21:59:40.172Z,5.32
2023-01-30T22:02:43.054Z,7.20
2023-01-30T22:05:46.251Z,6.37
2023-01-30T22:08:48.612Z,7.10
2023-01-30T22:11:51.347Z,5.50
2023-01-30T22:14:53.991Z,7.18
2023-01-30T22:17:56.873Z,8.13
2023-01-30T22:21:07.641Z,6.75
2023-01-30T22:24:11.744Z,7.95
2023-01-30T22:27:16.452Z,5.87
2023-01-30T22:30:22.185Z,5.43
2023-01-30T22:33:24.758Z,5.78
2023-01-30T22:36:30.224Z,5.57
2023-01-30T22:39:32.676Z,7.70
2023-01-30T22:42:37.539Z,5.70
2023-01-30T22:45:40.003Z,5.15
2023-01-30T22:48:45.334Z,6.10
2023-01-30T22:51:49.070Z,6.43
2023-01-30T22:54:51.809Z,7.03
2023-01-30T22:57:54.630Z,4.87
2023-01-30T23:01:08.246Z,6.50
2023-01-30T23:04:19.509Z,5.57
2023-01-30T23:07:22.313Z,5.18
2023-01-30T23:10:24.670Z,5.62
2023-01-30T23:13:27.385Z,5.10
2023-01-30T23:16:33.456Z,5.65
2023-01-30T23:19:36.692Z,6.93
2023-01-30T23:22:39.074Z,6.87
2023-01-30T23:25:42.521Z,5.23
2023-01-30T23:28:45.920Z,4.67
2023-01-30T23:31:48.895Z,4.60
2023-01-30T23:34:51.745Z,4.85
2023-01-30T23:38:13.049Z,5.07
2023-01-30T23:41:17.971Z,5.72
2023-01-30T23:44:21.038Z,5.30
2023-01-30T23:47:23.437Z,5.60
2023-01-30T23:50:26.416Z,5.18
2023-01-30T23:53:28.977Z,5.72
2023-01-30T23:56:34.088Z,5.30
2023-01-30T23:59:36.383Z,5.50
